sensor_id;sensor_type;location;lat;lon;timestamp;P1;durP1;ratioP1;P2;durP2;ratioP2
57593;SDS011;43423;46.510;6.686;2023-05-23T00:01:29;17.00;;;10.45;;
57593;SDS011;43423;46.510;6.686;2023-05-23T00:03:58;17.92;;;10.43;;
57593;SDS011;43423;46.510;6.686;2023-05-23T00:06:24;14.85;;;9.80;;
57593;SDS011;43423;46.510;6.686;2023-05-23T00:08:49;17.63;;;11.00;;
57593;SDS011;43423;46.510;6.686;2023-05-23T00:11:15;17.30;;;11.23;;
57593;SDS011;43423;46.510;6.686;2023-05-23T00:13:40;17.92;;;10.80;;
57593;SDS011;43423;46.510;6.686;2023-05-23T00:16:07;19.80;;;11.40;;
57593;SDS011;43423;46.510;6.686;2023-05-23T00:18:37;18.35;;;10.38;;
57593;SDS011;43423;46.510;6.686;2023-05-23T00:21:07;20.27;;;11.00;;
57593;SDS011;43423;46.510;6.686;2023-05-23T00:23:33;24.42;;;10.98;;
57593;SDS011;43423;46.510;6.686;2023-05-23T00:25:59;20.60;;;11.02;;
57593;SDS011;43423;46.510;6.686;2023-05-23T00:28:25;17.85;;;10.65;;
57593;SDS011;43423;46.510;6.686;2023-05-23T00:30:51;18.33;;;11.07;;
57593;SDS011;43423;46.510;6.686;2023-05-23T00:33:16;18.52;;;10.38;;
57593;SDS011;43423;46.510;6.686;2023-05-23T00:35:46;19.08;;;11.00;;
57593;SDS011;43423;46.510;6.686;2023-05-23T00:38:12;18.50;;;10.93;;
57593;SDS011;43423;46.510;6.686;2023-05-23T00:40:38;19.05;;;11.73;;
57593;SDS011;43423;46.510;6.686;2023-05-23T00:43:04;18.70;;;11.20;;
57593;SDS011;43423;46.510;6.686;2023-05-23T00:45:30;20.08;;;10.95;;
57593;SDS011;43423;46.510;6.686;2023-05-23T00:47:55;19.92;;;11.55;;
57593;SDS011;43423;46.510;6.686;2023-05-23T00:50:23;17.98;;;11.23;;
57593;SDS011;43423;46.510;6.686;2023-05-23T00:52:53;19.17;;;11.23;;
57593;SDS011;43423;46.510;6.686;2023-05-23T00:55:19;21.60;;;11.73;;
57593;SDS011;43423;46.510;6.686;2023-05-23T00:57:45;19.52;;;12.27;;
57593;SDS011;43423;46.510;6.686;2023-05-23T01:00:11;19.70;;;12.23;;
57593;SDS011;43423;46.510;6.686;2023-05-23T01:02:44;21.88;;;12.85;;
57593;SDS011;43423;46.510;6.686;2023-05-23T01:05:12;22.10;;;13.18;;
57593;SDS011;43423;46.510;6.686;2023-05-23T01:07:44;24.83;;;13.05;;
57593;SDS011;43423;46.510;6.686;2023-05-23T01:10:18;22.42;;;12.88;;
57593;SDS011;43423;46.510;6.686;2023-05-23T01:16:05;18.92;;;11.90;;
57593;SDS011;43423;46.510;6.686;2023-05-23T01:18:37;23.02;;;12.70;;
57593;SDS011;43423;46.510;6.686;2023-05-23T01:21:17;23.27;;;13.23;;
57593;SDS011;43423;46.510;6.686;2023-05-23T01:26:40;20.73;;;11.73;;
57593;SDS011;43423;46.510;6.686;2023-05-23T01:29:26;18.40;;;11.80;;
57593;SDS011;43423;46.510;6.686;2023-05-23T01:31:56;21.48;;;12.40;;
57593;SDS011;43423;46.510;6.686;2023-05-23T01:34:22;20.35;;;12.73;;
57593;SDS011;43423;46.510;6.686;2023-05-23T01:36:49;21.30;;;12.50;;
57593;SDS011;43423;46.510;6.686;2023-05-23T01:39:18;21.80;;;12.07;;
57593;SDS011;43423;46.510;6.686;2023-05-23T01:41:44;22.30;;;12.05;;
57593;SDS011;43423;46.510;6.686;2023-05-23T01:44:10;20.00;;;12.15;;
57593;SDS011;43423;46.510;6.686;2023-05-23T01:46:35;20.98;;;12.30;;
57593;SDS011;43423;46.510;6.686;2023-05-23T01:49:03;22.05;;;11.88;;
57593;SDS011;43423;46.510;6.686;2023-05-23T01:51:32;18.33;;;11.90;;
57593;SDS011;43423;46.510;6.686;2023-05-23T01:53:58;17.88;;;11.45;;
57593;SDS011;43423;46.510;6.686;2023-05-23T01:56:25;20.27;;;13.30;;
57593;SDS011;43423;46.510;6.686;2023-05-23T01:58:52;20.30;;;11.95;;
57593;SDS011;43423;46.510;6.686;2023-05-23T02:01:18;20.05;;;12.02;;
57593;SDS011;43423;46.510;6.686;2023-05-23T02:03:44;21.13;;;11.77;;
57593;SDS011;43423;46.510;6.686;2023-05-23T02:06:09;18.20;;;10.98;;
57593;SDS011;43423;46.510;6.686;2023-05-23T02:08:35;19.38;;;10.70;;
57593;SDS011;43423;46.510;6.686;2023-05-23T02:11:00;18.52;;;10.93;;
57593;SDS011;43423;46.510;6.686;2023-05-23T02:13:26;18.05;;;11.73;;
57593;SDS011;43423;46.510;6.686;2023-05-23T02:15:52;19.38;;;11.23;;
57593;SDS011;43423;46.510;6.686;2023-05-23T02:18:17;22.58;;;11.45;;
57593;SDS011;43423;46.510;6.686;2023-05-23T02:20:43;20.52;;;10.82;;
57593;SDS011;43423;46.510;6.686;2023-05-23T02:23:08;23.17;;;10.98;;
57593;SDS011;43423;46.510;6.686;2023-05-23T02:25:34;18.80;;;10.90;;
57593;SDS011;43423;46.510;6.686;2023-05-23T02:28:00;18.45;;;10.82;;
57593;SDS011;43423;46.510;6.686;2023-05-23T02:30:25;19.75;;;11.65;;
57593;SDS011;43423;46.510;6.686;2023-05-23T02:32:51;20.65;;;10.02;;
57593;SDS011;43423;46.510;6.686;2023-05-23T02:35:17;17.17;;;10.68;;
57593;SDS011;43423;46.510;6.686;2023-05-23T02:37:42;16.42;;;9.73;;
57593;SDS011;43423;46.510;6.686;2023-05-23T02:40:08;17.60;;;9.27;;
57593;SDS011;43423;46.510;6.686;2023-05-23T02:42:34;18.90;;;9.77;;
57593;SDS011;43423;46.510;6.686;2023-05-23T02:45:00;15.10;;;9.57;;
57593;SDS011;43423;46.510;6.686;2023-05-23T02:47:26;19.60;;;10.40;;
57593;SDS011;43423;46.510;6.686;2023-05-23T02:49:51;17.40;;;10.43;;
57593;SDS011;43423;46.510;6.686;2023-05-23T02:52:17;17.30;;;10.27;;
57593;SDS011;43423;46.510;6.686;2023-05-23T02:54:44;15.85;;;9.95;;
57593;SDS011;43423;46.510;6.686;2023-05-23T02:57:09;19.52;;;9.70;;
57593;SDS011;43423;46.510;6.686;2023-05-23T02:59:35;16.10;;;9.45;;
57593;SDS011;43423;46.510;6.686;2023-05-23T03:02:00;22.30;;;11.00;;
57593;SDS011;43423;46.510;6.686;2023-05-23T03:04:26;17.17;;;9.73;;
57593;SDS011;43423;46.510;6.686;2023-05-23T03:06:52;19.20;;;10.63;;
57593;SDS011;43423;46.510;6.686;2023-05-23T03:09:18;20.90;;;10.82;;
57593;SDS011;43423;46.510;6.686;2023-05-23T03:11:44;23.70;;;11.35;;
57593;SDS011;43423;46.510;6.686;2023-05-23T03:14:11;17.25;;;10.57;;
57593;SDS011;43423;46.510;6.686;2023-05-23T03:16:36;15.75;;;9.63;;
57593;SDS011;43423;46.510;6.686;2023-05-23T03:19:02;17.00;;;9.15;;
57593;SDS011;43423;46.510;6.686;2023-05-23T03:21:29;16.17;;;9.75;;
57593;SDS011;43423;46.510;6.686;2023-05-23T03:23:56;15.48;;;9.00;;
57593;SDS011;43423;46.510;6.686;2023-05-23T03:26:21;13.07;;;8.82;;
57593;SDS011;43423;46.510;6.686;2023-05-23T03:28:47;14.55;;;8.70;;
57593;SDS011;43423;46.510;6.686;2023-05-23T03:31:13;20.20;;;9.60;;
57593;SDS011;43423;46.510;6.686;2023-05-23T03:33:39;13.82;;;8.98;;
57593;SDS011;43423;46.510;6.686;2023-05-23T03:36:04;16.30;;;8.98;;
57593;SDS011;43423;46.510;6.686;2023-05-23T03:38:30;15.30;;;8.80;;
57593;SDS011;43423;46.510;6.686;2023-05-23T03:40:56;13.23;;;8.13;;
57593;SDS011;43423;46.510;6.686;2023-05-23T03:43:22;14.60;;;8.77;;
57593;SDS011;43423;46.510;6.686;2023-05-23T03:45:47;12.35;;;7.93;;
57593;SDS011;43423;46.510;6.686;2023-05-23T03:48:13;16.60;;;8.30;;
57593;SDS011;43423;46.510;6.686;2023-05-23T03:50:38;15.73;;;8.68;;
57593;SDS011;43423;46.510;6.686;2023-05-23T03:53:04;17.95;;;8.80;;
57593;SDS011;43423;46.510;6.686;2023-05-23T03:55:30;17.02;;;9.50;;
57593;SDS011;43423;46.510;6.686;2023-05-23T03:57:56;14.98;;;8.65;;
57593;SDS011;43423;46.510;6.686;2023-05-23T04:00:21;14.32;;;8.50;;
57593;SDS011;43423;46.510;6.686;2023-05-23T04:02:47;15.77;;;9.20;;
57593;SDS011;43423;46.510;6.686;2023-05-23T04:05:14;18.00;;;8.93;;
57593;SDS011;43423;46.510;6.686;2023-05-23T04:07:40;16.88;;;8.70;;
57593;SDS011;43423;46.510;6.686;2023-05-23T04:10:06;16.25;;;8.88;;
57593;SDS011;43423;46.510;6.686;2023-05-23T04:12:33;14.77;;;8.93;;
57593;SDS011;43423;46.510;6.686;2023-05-23T04:14:59;14.27;;;8.77;;
57593;SDS011;43423;46.510;6.686;2023-05-23T04:17:25;17.60;;;9.48;;
57593;SDS011;43423;46.510;6.686;2023-05-23T04:19:54;16.55;;;8.93;;
57593;SDS011;43423;46.510;6.686;2023-05-23T04:22:20;15.52;;;9.70;;
57593;SDS011;43423;46.510;6.686;2023-05-23T04:24:46;15.60;;;8.63;;
57593;SDS011;43423;46.510;6.686;2023-05-23T04:27:12;12.88;;;8.30;;
57593;SDS011;43423;46.510;6.686;2023-05-23T04:29:37;20.50;;;8.77;;
57593;SDS011;43423;46.510;6.686;2023-05-23T04:32:04;13.73;;;8.63;;
57593;SDS011;43423;46.510;6.686;2023-05-23T04:34:30;14.07;;;8.88;;
57593;SDS011;43423;46.510;6.686;2023-05-23T04:37:01;15.35;;;9.13;;
57593;SDS011;43423;46.510;6.686;2023-05-23T04:39:27;15.13;;;9.20;;
57593;SDS011;43423;46.510;6.686;2023-05-23T04:41:54;18.88;;;9.57;;
57593;SDS011;43423;46.510;6.686;2023-05-23T04:44:23;20.77;;;10.05;;
57593;SDS011;43423;46.510;6.686;2023-05-23T04:46:50;18.38;;;9.60;;
57593;SDS011;43423;46.510;6.686;2023-05-23T04:49:16;16.70;;;9.57;;
57593;SDS011;43423;46.510;6.686;2023-05-23T04:51:42;17.02;;;9.95;;
57593;SDS011;43423;46.510;6.686;2023-05-23T04:54:07;15.35;;;9.32;;
57593;SDS011;43423;46.510;6.686;2023-05-23T04:56:33;17.88;;;10.25;;
57593;SDS011;43423;46.510;6.686;2023-05-23T04:58:58;16.33;;;9.73;;
57593;SDS011;43423;46.510;6.686;2023-05-23T05:01:24;20.65;;;10.63;;
57593;SDS011;43423;46.510;6.686;2023-05-23T05:03:50;22.60;;;10.55;;
57593;SDS011;43423;46.510;6.686;2023-05-23T05:06:16;16.73;;;9.60;;
57593;SDS011;43423;46.510;6.686;2023-05-23T05:08:42;19.52;;;11.23;;
57593;SDS011;43423;46.510;6.686;2023-05-23T05:11:08;17.50;;;9.57;;
57593;SDS011;43423;46.510;6.686;2023-05-23T05:13:34;18.20;;;9.68;;
57593;SDS011;43423;46.510;6.686;2023-05-23T05:16:01;17.80;;;9.52;;
57593;SDS011;43423;46.510;6.686;2023-05-23T05:18:27;13.57;;;8.80;;
57593;SDS011;43423;46.510;6.686;2023-05-23T05:20:52;14.25;;;9.15;;
57593;SDS011;43423;46.510;6.686;2023-05-23T05:23:18;13.25;;;8.57;;
57593;SDS011;43423;46.510;6.686;2023-05-23T05:25:44;18.25;;;9.93;;
57593;SDS011;43423;46.510;6.686;2023-05-23T05:28:10;15.60;;;10.10;;
57593;SDS011;43423;46.510;6.686;2023-05-23T05:30:36;15.73;;;9.95;;
57593;SDS011;43423;46.510;6.686;2023-05-23T05:33:01;18.27;;;9.77;;
57593;SDS011;43423;46.510;6.686;2023-05-23T05:35:29;16.85;;;9.55;;
57593;SDS011;43423;46.510;6.686;2023-05-23T05:37:56;14.85;;;9.27;;
57593;SDS011;43423;46.510;6.686;2023-05-23T05:40:22;15.05;;;9.45;;
57593;SDS011;43423;46.510;6.686;2023-05-23T05:42:47;16.33;;;9.45;;
57593;SDS011;43423;46.510;6.686;2023-05-23T05:45:13;17.75;;;9.30;;
57593;SDS011;43423;46.510;6.686;2023-05-23T05:47:39;17.30;;;8.82;;
57593;SDS011;43423;46.510;6.686;2023-05-23T05:50:04;16.25;;;8.98;;
57593;SDS011;43423;46.510;6.686;2023-05-23T05:52:31;14.30;;;8.88;;
57593;SDS011;43423;46.510;6.686;2023-05-23T05:54:59;15.10;;;9.35;;
57593;SDS011;43423;46.510;6.686;2023-05-23T05:57:24;16.40;;;10.13;;
57593;SDS011;43423;46.510;6.686;2023-05-23T05:59:50;17.33;;;9.80;;
57593;SDS011;43423;46.510;6.686;2023-05-23T06:02:16;16.02;;;9.05;;
57593;SDS011;43423;46.510;6.686;2023-05-23T06:04:42;16.02;;;9.38;;
57593;SDS011;43423;46.510;6.686;2023-05-23T06:07:07;17.42;;;10.15;;
57593;SDS011;43423;46.510;6.686;2023-05-23T06:09:33;19.50;;;8.95;;
57593;SDS011;43423;46.510;6.686;2023-05-23T06:11:59;17.40;;;9.55;;
57593;SDS011;43423;46.510;6.686;2023-05-23T06:14:25;20.77;;;9.48;;
57593;SDS011;43423;46.510;6.686;2023-05-23T06:16:51;19.70;;;10.07;;
57593;SDS011;43423;46.510;6.686;2023-05-23T06:19:16;16.42;;;9.05;;
57593;SDS011;43423;46.510;6.686;2023-05-23T06:21:42;15.70;;;8.82;;
57593;SDS011;43423;46.510;6.686;2023-05-23T06:24:07;14.77;;;8.70;;
57593;SDS011;43423;46.510;6.686;2023-05-23T06:26:33;12.73;;;7.85;;
57593;SDS011;43423;46.510;6.686;2023-05-23T06:28:58;15.30;;;8.73;;
57593;SDS011;43423;46.510;6.686;2023-05-23T06:31:24;14.68;;;8.68;;
57593;SDS011;43423;46.510;6.686;2023-05-23T06:33:49;12.18;;;8.43;;
57593;SDS011;43423;46.510;6.686;2023-05-23T06:36:15;14.65;;;8.45;;
57593;SDS011;43423;46.510;6.686;2023-05-23T06:38:40;12.98;;;8.30;;
57593;SDS011;43423;46.510;6.686;2023-05-23T06:41:06;13.82;;;7.85;;
57593;SDS011;43423;46.510;6.686;2023-05-23T06:43:32;15.32;;;9.13;;
57593;SDS011;43423;46.510;6.686;2023-05-23T06:45:57;14.10;;;8.55;;
57593;SDS011;43423;46.510;6.686;2023-05-23T06:48:23;16.85;;;9.23;;
57593;SDS011;43423;46.510;6.686;2023-05-23T06:50:48;16.88;;;9.05;;
57593;SDS011;43423;46.510;6.686;2023-05-23T06:53:14;15.90;;;8.18;;
57593;SDS011;43423;46.510;6.686;2023-05-23T06:55:40;15.98;;;9.18;;
57593;SDS011;43423;46.510;6.686;2023-05-23T06:58:06;15.50;;;8.48;;
57593;SDS011;43423;46.510;6.686;2023-05-23T07:00:31;18.60;;;10.07;;
57593;SDS011;43423;46.510;6.686;2023-05-23T07:02:57;16.88;;;9.18;;
57593;SDS011;43423;46.510;6.686;2023-05-23T07:05:27;18.03;;;8.43;;
57593;SDS011;43423;46.510;6.686;2023-05-23T07:07:53;19.67;;;8.68;;
57593;SDS011;43423;46.510;6.686;2023-05-23T07:10:19;17.20;;;9.70;;
57593;SDS011;43423;46.510;6.686;2023-05-23T07:12:45;15.95;;;7.78;;
57593;SDS011;43423;46.510;6.686;2023-05-23T07:15:11;19.02;;;8.63;;
57593;SDS011;43423;46.510;6.686;2023-05-23T07:17:37;16.80;;;9.63;;
57593;SDS011;43423;46.510;6.686;2023-05-23T07:20:03;15.52;;;8.98;;
57593;SDS011;43423;46.510;6.686;2023-05-23T07:22:29;13.68;;;8.27;;
57593;SDS011;43423;46.510;6.686;2023-05-23T07:24:55;15.23;;;7.63;;
57593;SDS011;43423;46.510;6.686;2023-05-23T07:27:21;13.90;;;8.60;;
57593;SDS011;43423;46.510;6.686;2023-05-23T07:29:47;15.13;;;8.13;;
57593;SDS011;43423;46.510;6.686;2023-05-23T07:32:12;13.48;;;8.40;;
57593;SDS011;43423;46.510;6.686;2023-05-23T07:34:38;13.85;;;7.95;;
57593;SDS011;43423;46.510;6.686;2023-05-23T07:37:03;17.88;;;9.10;;
57593;SDS011;43423;46.510;6.686;2023-05-23T07:39:29;16.15;;;8.88;;
57593;SDS011;43423;46.510;6.686;2023-05-23T07:41:55;14.63;;;8.23;;
57593;SDS011;43423;46.510;6.686;2023-05-23T07:44:20;14.02;;;8.13;;
57593;SDS011;43423;46.510;6.686;2023-05-23T07:46:46;11.65;;;8.45;;
57593;SDS011;43423;46.510;6.686;2023-05-23T07:49:12;12.95;;;7.55;;
57593;SDS011;43423;46.510;6.686;2023-05-23T07:51:37;12.02;;;7.65;;
57593;SDS011;43423;46.510;6.686;2023-05-23T07:54:03;14.30;;;8.43;;
57593;SDS011;43423;46.510;6.686;2023-05-23T07:56:28;12.38;;;8.02;;
57593;SDS011;43423;46.510;6.686;2023-05-23T07:58:55;13.77;;;8.15;;
57593;SDS011;43423;46.510;6.686;2023-05-23T08:01:20;12.95;;;8.05;;
57593;SDS011;43423;46.510;6.686;2023-05-23T08:03:46;16.10;;;8.85;;
57593;SDS011;43423;46.510;6.686;2023-05-23T08:06:11;17.65;;;8.10;;
57593;SDS011;43423;46.510;6.686;2023-05-23T08:08:37;15.80;;;8.88;;
57593;SDS011;43423;46.510;6.686;2023-05-23T08:11:03;17.95;;;8.93;;
57593;SDS011;43423;46.510;6.686;2023-05-23T08:13:29;11.80;;;7.97;;
57593;SDS011;43423;46.510;6.686;2023-05-23T08:15:55;14.77;;;8.23;;
57593;SDS011;43423;46.510;6.686;2023-05-23T08:18:20;18.52;;;8.50;;
57593;SDS011;43423;46.510;6.686;2023-05-23T08:20:46;15.48;;;8.70;;
57593;SDS011;43423;46.510;6.686;2023-05-23T08:23:11;12.60;;;8.50;;
57593;SDS011;43423;46.510;6.686;2023-05-23T08:25:38;13.82;;;8.40;;
57593;SDS011;43423;46.510;6.686;2023-05-23T08:28:03;12.68;;;8.40;;
57593;SDS011;43423;46.510;6.686;2023-05-23T08:30:29;15.82;;;10.02;;
57593;SDS011;43423;46.510;6.686;2023-05-23T08:32:57;14.23;;;9.02;;
57593;SDS011;43423;46.510;6.686;2023-05-23T08:35:22;16.35;;;10.32;;
57593;SDS011;43423;46.510;6.686;2023-05-23T08:37:48;13.32;;;8.27;;
57593;SDS011;43423;46.510;6.686;2023-05-23T08:40:18;15.82;;;9.27;;
57593;SDS011;43423;46.510;6.686;2023-05-23T08:42:48;14.25;;;9.00;;
57593;SDS011;43423;46.510;6.686;2023-05-23T08:45:15;11.75;;;7.95;;
57593;SDS011;43423;46.510;6.686;2023-05-23T08:47:41;16.48;;;9.15;;
57593;SDS011;43423;46.510;6.686;2023-05-23T08:50:12;16.30;;;9.27;;
57593;SDS011;43423;46.510;6.686;2023-05-23T08:52:47;15.80;;;9.05;;
57593;SDS011;43423;46.510;6.686;2023-05-23T08:55:18;16.25;;;8.15;;
57593;SDS011;43423;46.510;6.686;2023-05-23T08:57:44;14.90;;;9.10;;
57593;SDS011;43423;46.510;6.686;2023-05-23T09:00:11;15.05;;;8.73;;
57593;SDS011;43423;46.510;6.686;2023-05-23T09:02:39;14.60;;;8.90;;
57593;SDS011;43423;46.510;6.686;2023-05-23T09:05:08;13.77;;;8.52;;
57593;SDS011;43423;46.510;6.686;2023-05-23T09:07:34;14.38;;;8.48;;
57593;SDS011;43423;46.510;6.686;2023-05-23T09:10:00;13.30;;;8.45;;
57593;SDS011;43423;46.510;6.686;2023-05-23T09:12:25;12.85;;;8.30;;
57593;SDS011;43423;46.510;6.686;2023-05-23T09:14:51;14.45;;;8.80;;
57593;SDS011;43423;46.510;6.686;2023-05-23T09:17:17;16.02;;;9.60;;
57593;SDS011;43423;46.510;6.686;2023-05-23T09:19:44;15.77;;;9.80;;
57593;SDS011;43423;46.510;6.686;2023-05-23T09:22:11;14.63;;;10.07;;
57593;SDS011;43423;46.510;6.686;2023-05-23T09:24:37;15.77;;;8.95;;
57593;SDS011;43423;46.510;6.686;2023-05-23T09:27:03;12.35;;;8.20;;
57593;SDS011;43423;46.510;6.686;2023-05-23T09:29:30;16.15;;;10.05;;
57593;SDS011;43423;46.510;6.686;2023-05-23T09:31:59;16.10;;;10.05;;
57593;SDS011;43423;46.510;6.686;2023-05-23T09:34:34;14.68;;;8.50;;
57593;SDS011;43423;46.510;6.686;2023-05-23T09:37:00;16.58;;;9.52;;
57593;SDS011;43423;46.510;6.686;2023-05-23T09:39:25;18.27;;;9.98;;
57593;SDS011;43423;46.510;6.686;2023-05-23T09:41:51;12.55;;;8.82;;
57593;SDS011;43423;46.510;6.686;2023-05-23T09:44:21;21.02;;;12.32;;
57593;SDS011;43423;46.510;6.686;2023-05-23T09:46:49;16.95;;;10.63;;
57593;SDS011;43423;46.510;6.686;2023-05-23T09:49:17;19.67;;;11.63;;
57593;SDS011;43423;46.510;6.686;2023-05-23T09:51:43;20.67;;;11.98;;
57593;SDS011;43423;46.510;6.686;2023-05-23T09:54:22;24.88;;;14.38;;
57593;SDS011;43423;46.510;6.686;2023-05-23T09:56:47;24.65;;;14.38;;
57593;SDS011;43423;46.510;6.686;2023-05-23T09:59:17;26.73;;;13.82;;
57593;SDS011;43423;46.510;6.686;2023-05-23T10:01:48;19.08;;;12.40;;
57593;SDS011;43423;46.510;6.686;2023-05-23T10:04:16;22.50;;;11.77;;
57593;SDS011;43423;46.510;6.686;2023-05-23T10:06:52;23.95;;;13.63;;
57593;SDS011;43423;46.510;6.686;2023-05-23T10:09:22;20.75;;;11.95;;
57593;SDS011;43423;46.510;6.686;2023-05-23T10:14:29;21.30;;;12.73;;
57593;SDS011;43423;46.510;6.686;2023-05-23T10:20:05;23.70;;;14.52;;
57593;SDS011;43423;46.510;6.686;2023-05-23T10:22:37;25.95;;;14.00;;
57593;SDS011;43423;46.510;6.686;2023-05-23T10:25:03;20.63;;;13.25;;
57593;SDS011;43423;46.510;6.686;2023-05-23T10:27:30;22.35;;;13.30;;
57593;SDS011;43423;46.510;6.686;2023-05-23T10:29:57;20.55;;;12.98;;
57593;SDS011;43423;46.510;6.686;2023-05-23T10:32:23;22.27;;;12.32;;
57593;SDS011;43423;46.510;6.686;2023-05-23T10:35:03;20.52;;;10.63;;
57593;SDS011;43423;46.510;6.686;2023-05-23T10:37:52;19.23;;;12.68;;
57593;SDS011;43423;46.510;6.686;2023-05-23T10:40:26;15.75;;;10.70;;
57593;SDS011;43423;46.510;6.686;2023-05-23T10:45:30;16.75;;;10.20;;
57593;SDS011;43423;46.510;6.686;2023-05-23T10:48:15;13.02;;;7.68;;
57593;SDS011;43423;46.510;6.686;2023-05-23T10:51:05;10.32;;;7.22;;
57593;SDS011;43423;46.510;6.686;2023-05-23T10:53:33;14.90;;;7.10;;
57593;SDS011;43423;46.510;6.686;2023-05-23T10:56:00;11.95;;;7.55;;
57593;SDS011;43423;46.510;6.686;2023-05-23T10:58:29;12.57;;;7.25;;
57593;SDS011;43423;46.510;6.686;2023-05-23T11:00:56;10.52;;;6.53;;
57593;SDS011;43423;46.510;6.686;2023-05-23T11:03:35;13.25;;;7.88;;
57593;SDS011;43423;46.510;6.686;2023-05-23T11:09:04;9.95;;;6.45;;
57593;SDS011;43423;46.510;6.686;2023-05-23T11:14:17;10.43;;;6.07;;
57593;SDS011;43423;46.510;6.686;2023-05-23T11:16:55;7.75;;;5.82;;
57593;SDS011;43423;46.510;6.686;2023-05-23T11:19:21;7.38;;;5.60;;
57593;SDS011;43423;46.510;6.686;2023-05-23T11:22:00;8.35;;;5.80;;
57593;SDS011;43423;46.510;6.686;2023-05-23T11:27:28;9.55;;;6.50;;
57593;SDS011;43423;46.510;6.686;2023-05-23T11:30:00;10.77;;;7.18;;
57593;SDS011;43423;46.510;6.686;2023-05-23T11:32:31;15.32;;;7.88;;
57593;SDS011;43423;46.510;6.686;2023-05-23T11:34:59;9.48;;;7.07;;
57593;SDS011;43423;46.510;6.686;2023-05-23T11:37:26;12.00;;;7.90;;
57593;SDS011;43423;46.510;6.686;2023-05-23T11:39:52;16.55;;;8.57;;
57593;SDS011;43423;46.510;6.686;2023-05-23T11:42:18;11.07;;;7.70;;
57593;SDS011;43423;46.510;6.686;2023-05-23T11:44:43;14.00;;;6.85;;
57593;SDS011;43423;46.510;6.686;2023-05-23T11:47:13;12.77;;;7.40;;
57593;SDS011;43423;46.510;6.686;2023-05-23T11:49:38;10.98;;;7.25;;
57593;SDS011;43423;46.510;6.686;2023-05-23T11:52:05;10.18;;;6.25;;
57593;SDS011;43423;46.510;6.686;2023-05-23T11:54:31;12.98;;;7.90;;
57593;SDS011;43423;46.510;6.686;2023-05-23T11:56:57;12.50;;;7.50;;
57593;SDS011;43423;46.510;6.686;2023-05-23T11:59:23;10.82;;;8.07;;
57593;SDS011;43423;46.510;6.686;2023-05-23T12:01:51;15.85;;;6.78;;
57593;SDS011;43423;46.510;6.686;2023-05-23T12:04:19;11.70;;;7.55;;
57593;SDS011;43423;46.510;6.686;2023-05-23T12:06:46;13.73;;;7.72;;
57593;SDS011;43423;46.510;6.686;2023-05-23T12:09:13;13.10;;;8.20;;
57593;SDS011;43423;46.510;6.686;2023-05-23T12:11:39;12.75;;;8.15;;
57593;SDS011;43423;46.510;6.686;2023-05-23T12:14:06;14.02;;;8.65;;
57593;SDS011;43423;46.510;6.686;2023-05-23T12:16:33;13.50;;;8.48;;
57593;SDS011;43423;46.510;6.686;2023-05-23T12:19:03;13.45;;;9.05;;
57593;SDS011;43423;46.510;6.686;2023-05-23T12:21:42;12.77;;;9.38;;
57593;SDS011;43423;46.510;6.686;2023-05-23T12:24:23;12.30;;;8.68;;
57593;SDS011;43423;46.510;6.686;2023-05-23T12:26:49;14.52;;;9.20;;
57593;SDS011;43423;46.510;6.686;2023-05-23T12:29:17;15.02;;;8.85;;
57593;SDS011;43423;46.510;6.686;2023-05-23T12:31:47;16.70;;;9.50;;
57593;SDS011;43423;46.510;6.686;2023-05-23T12:34:13;17.48;;;9.32;;
57593;SDS011;43423;46.510;6.686;2023-05-23T12:36:39;16.13;;;10.25;;
57593;SDS011;43423;46.510;6.686;2023-05-23T12:39:07;13.93;;;9.90;;
57593;SDS011;43423;46.510;6.686;2023-05-23T12:41:33;14.85;;;8.30;;
57593;SDS011;43423;46.510;6.686;2023-05-23T12:43:59;16.58;;;9.48;;
57593;SDS011;43423;46.510;6.686;2023-05-23T12:46:26;14.57;;;8.93;;
57593;SDS011;43423;46.510;6.686;2023-05-23T12:48:52;13.48;;;9.30;;
57593;SDS011;43423;46.510;6.686;2023-05-23T12:51:18;12.82;;;8.57;;
57593;SDS011;43423;46.510;6.686;2023-05-23T12:53:44;12.68;;;8.73;;
57593;SDS011;43423;46.510;6.686;2023-05-23T12:56:10;19.33;;;9.32;;
57593;SDS011;43423;46.510;6.686;2023-05-23T12:58:35;13.00;;;9.00;;
57593;SDS011;43423;46.510;6.686;2023-05-23T13:01:01;13.75;;;9.13;;
57593;SDS011;43423;46.510;6.686;2023-05-23T13:03:27;41.42;;;12.80;;
57593;SDS011;43423;46.510;6.686;2023-05-23T13:05:55;18.48;;;10.23;;
57593;SDS011;43423;46.510;6.686;2023-05-23T13:08:22;17.45;;;11.20;;
57593;SDS011;43423;46.510;6.686;2023-05-23T13:10:48;18.08;;;11.15;;
57593;SDS011;43423;46.510;6.686;2023-05-23T13:13:13;17.88;;;10.93;;
57593;SDS011;43423;46.510;6.686;2023-05-23T13:15:39;18.77;;;11.63;;
57593;SDS011;43423;46.510;6.686;2023-05-23T13:18:05;15.00;;;10.07;;
57593;SDS011;43423;46.510;6.686;2023-05-23T13:20:31;15.55;;;10.32;;
57593;SDS011;43423;46.510;6.686;2023-05-23T13:22:56;18.63;;;12.00;;
57593;SDS011;43423;46.510;6.686;2023-05-23T13:25:23;18.63;;;11.18;;
57593;SDS011;43423;46.510;6.686;2023-05-23T13:27:49;16.73;;;10.95;;
57593;SDS011;43423;46.510;6.686;2023-05-23T13:30:15;19.15;;;11.35;;
57593;SDS011;43423;46.510;6.686;2023-05-23T13:32:41;21.13;;;11.30;;
57593;SDS011;43423;46.510;6.686;2023-05-23T13:35:06;14.98;;;10.75;;
57593;SDS011;43423;46.510;6.686;2023-05-23T13:37:32;19.08;;;11.32;;
57593;SDS011;43423;46.510;6.686;2023-05-23T13:40:00;17.45;;;10.45;;
57593;SDS011;43423;46.510;6.686;2023-05-23T13:42:27;15.25;;;10.18;;
57593;SDS011;43423;46.510;6.686;2023-05-23T13:44:53;14.40;;;9.43;;
57593;SDS011;43423;46.510;6.686;2023-05-23T13:47:19;15.82;;;10.00;;
57593;SDS011;43423;46.510;6.686;2023-05-23T13:49:44;15.45;;;10.02;;
57593;SDS011;43423;46.510;6.686;2023-05-23T13:52:10;16.27;;;10.70;;
57593;SDS011;43423;46.510;6.686;2023-05-23T13:54:36;17.98;;;10.95;;
57593;SDS011;43423;46.510;6.686;2023-05-23T13:57:02;20.75;;;11.13;;
57593;SDS011;43423;46.510;6.686;2023-05-23T13:59:28;16.80;;;11.32;;
57593;SDS011;43423;46.510;6.686;2023-05-23T14:01:54;16.77;;;11.23;;
57593;SDS011;43423;46.510;6.686;2023-05-23T14:04:20;17.20;;;11.20;;
57593;SDS011;43423;46.510;6.686;2023-05-23T14:06:45;18.05;;;11.27;;
57593;SDS011;43423;46.510;6.686;2023-05-23T14:09:11;19.33;;;11.40;;
57593;SDS011;43423;46.510;6.686;2023-05-23T14:11:37;18.48;;;11.57;;
57593;SDS011;43423;46.510;6.686;2023-05-23T14:14:03;17.30;;;11.98;;
57593;SDS011;43423;46.510;6.686;2023-05-23T14:16:29;18.13;;;11.18;;
57593;SDS011;43423;46.510;6.686;2023-05-23T14:18:56;17.27;;;10.52;;
57593;SDS011;43423;46.510;6.686;2023-05-23T14:21:22;17.98;;;10.70;;
57593;SDS011;43423;46.510;6.686;2023-05-23T14:23:47;16.52;;;11.15;;
57593;SDS011;43423;46.510;6.686;2023-05-23T14:26:13;17.88;;;10.73;;
57593;SDS011;43423;46.510;6.686;2023-05-23T14:28:39;17.73;;;10.55;;
57593;SDS011;43423;46.510;6.686;2023-05-23T14:31:04;15.68;;;9.43;;
57593;SDS011;43423;46.510;6.686;2023-05-23T14:33:30;16.02;;;10.52;;
57593;SDS011;43423;46.510;6.686;2023-05-23T14:35:56;23.75;;;10.98;;
57593;SDS011;43423;46.510;6.686;2023-05-23T14:38:22;15.75;;;10.40;;
57593;SDS011;43423;46.510;6.686;2023-05-23T14:40:47;18.20;;;10.90;;
57593;SDS011;43423;46.510;6.686;2023-05-23T14:43:13;15.68;;;10.73;;
57593;SDS011;43423;46.510;6.686;2023-05-23T14:45:39;23.33;;;10.82;;
57593;SDS011;43423;46.510;6.686;2023-05-23T14:48:06;15.43;;;9.85;;
57593;SDS011;43423;46.510;6.686;2023-05-23T14:50:31;15.80;;;10.27;;